Aoyuzhou, China

41°F / 5°C
Light Rain
Humidity: 93%
Dew Point: 39°F / 4°C
Wind: Variable at 2 mph / 4 km/h
Pressure: 30.09 in / 1019 hPa (Steady)
Visibility: 5.0 miles / 8.0 kilometers
Clouds: (FEW) : 800 ft / 243 m
Mostly Cloudy (BKN) : 2300 ft / 701 m
Overcast (OVC) : 3300 ft / 1005 m
Yesterday's Maximum: 43°F / 6°C
Yesterday's Minimum: 41°F / 5°C approx.
Yesterday's Heating Degree Days: 23 approx.
UV: 0 out of 16
Sunrise:7:08 AM CST
Sunset:6:32 PM CST
Moon Rise:7:20 PM CST
Moon Set:7:36 AM CST
Moon Phase Full Moon
NOAA Weather Radio
No local feed.
METAR ZGKL 192000Z VRB01MPS 8000 -RA FEW008 BKN023 OVC033 05/04 Q1019 NOSIG
As of: 4:00 AM CST on February 20, 2019
Observed at: Guilin, China

View Station's History

Local Satellite

Current Satellite Forecast
Region Default Local
No Yes

View Full Screen WunderMap

Forecast

Current Satellite Forecast

Features

Weather Apps

WunderRadio

Weather Underground Apps
Check out our wide variety of mobile and setup applications.

Weather Underground Applications

Top of Page

© Copyright 2019
The Weather Company, LLC